Time;durP1;ratioP1;P1;durP2;ratioP2;P2;SDS_P1;SDS_P2;PMS_P1;PMS_P2;Temp;Humidity;BMP_temperature;BMP_pressure;BME280_temperature;BME280_humidity;BME280_pressure;Samples;Min_cycle;Max_cycle;Signal;HPM_P1;HPM_P2
2022/06/25 00:01:15;;;;;;;;;;;18.30;99.90;;;;;;5021303;28;19931;-78
2022/06/25 00:03:41;;;;;;;;;;;18.30;99.90;;;;;;5006179;28;20058;-78
2022/06/25 00:06:07;;;;;;;;;;;18.30;99.90;;;;;;5018342;28;20721;-78
2022/06/25 00:08:33;;;;;;;;;;;18.20;99.90;;;;;;5004130;28;19928;-78
2022/06/25 00:10:59;;;;;;;;;;;18.30;99.90;;;;;;5042729;28;20429;-77
2022/06/25 00:13:24;;;;;;;;;;;18.30;99.90;;;;;;5040356;28;19975;-78
2022/06/25 00:15:51;;;;;;;;;;;18.30;99.90;;;;;;5044024;28;19938;-77
2022/06/25 00:18:17;;;;;;;;;;;18.30;99.90;;;;;;5049243;28;19935;-77
2022/06/25 00:20:43;;;;;;;;;;;18.30;99.90;;;;;;5026155;28;20694;-78
2022/06/25 00:23:08;;;;;;;;;;;18.30;99.90;;;;;;5043213;28;19928;-78
2022/06/25 00:25:34;;;;;;;;;;;18.20;99.90;;;;;;5052371;28;19928;-78
2022/06/25 00:28:00;;;;;;;;;;;18.30;99.90;;;;;;5028646;28;20740;-78
2022/06/25 00:30:26;;;;;;;;;;;18.30;99.90;;;;;;5041603;28;20055;-78
2022/06/25 00:32:52;;;;;;;;;;;18.30;99.90;;;;;;5027762;28;19928;-78
2022/06/25 00:35:18;;;;;;;;;;;18.30;99.90;;;;;;5016661;28;20593;-78
2022/06/25 00:37:43;;;;;;;;;;;18.30;99.90;;;;;;5038743;28;20293;-78
2022/06/25 00:40:10;;;;;;;;;;;18.30;99.90;;;;;;5048452;28;19974;-78
2022/06/25 00:42:35;;;;;;;;;;;18.20;99.90;;;;;;5045881;28;20770;-78
2022/06/25 00:45:01;;;;;;;;;;;18.20;99.90;;;;;;5047415;28;19932;-78
2022/06/25 00:47:27;;;;;;;;;;;18.10;99.90;;;;;;5048389;28;19987;-78
2022/06/25 00:49:53;;;;;;;;;;;18.10;99.90;;;;;;5048334;28;19942;-78
2022/06/25 00:52:19;;;;;;;;;;;18.10;99.90;;;;;;5023707;28;19939;-78
2022/06/25 00:54:48;;;;;;;;;;;18.00;99.90;;;;;;5026371;28;19955;-78
2022/06/25 00:57:17;;;;;;;;;;;18.10;99.90;;;;;;5048847;28;20917;-78
2022/06/25 00:59:44;;;;;;;;;;;18.10;99.90;;;;;;5049026;28;19936;-79
2022/06/25 01:02:09;;;;;;;;;;;18.10;99.90;;;;;;5041977;28;19935;-78
2022/06/25 01:04:36;;;;;;;;;;;18.00;99.90;;;;;;5045591;28;19928;-77
2022/06/25 01:07:02;;;;;;;;;;;18.00;99.90;;;;;;5011863;28;19928;-78
2022/06/25 01:09:28;;;;;;;;;;;18.00;99.90;;;;;;5022302;28;19951;-78
2022/06/25 01:11:53;;;;;;;;;;;17.90;99.90;;;;;;5047453;28;20011;-78
2022/06/25 01:14:19;;;;;;;;;;;18.00;99.90;;;;;;5041708;28;19978;-78
2022/06/25 01:16:45;;;;;;;;;;;18.00;99.90;;;;;;5046852;28;20332;-78
2022/06/25 01:19:11;;;;;;;;;;;17.90;99.90;;;;;;5050934;28;19928;-78
2022/06/25 01:21:38;;;;;;;;;;;17.80;99.90;;;;;;5043685;28;19932;-78
2022/06/25 01:24:05;;;;;;;;;;;17.50;99.90;;;;;;5028066;28;20395;-79
2022/06/25 01:26:39;;;;;;;;;;;17.50;99.90;;;;;;5044233;28;20707;-78
2022/06/25 01:29:04;;;;;;;;;;;17.60;99.90;;;;;;5023468;28;20773;-78
2022/06/25 01:31:30;;;;;;;;;;;17.50;99.90;;;;;;5030222;28;19951;-77
2022/06/25 01:33:56;;;;;;;;;;;17.30;99.90;;;;;;5047439;28;20589;-78
2022/06/25 01:36:22;;;;;;;;;;;17.30;99.90;;;;;;5042909;28;19928;-78
2022/06/25 01:38:47;;;;;;;;;;;17.30;99.90;;;;;;5048600;28;19931;-78
2022/06/25 01:41:13;;;;;;;;;;;17.40;99.90;;;;;;5049892;28;19936;-78
2022/06/25 01:43:39;;;;;;;;;;;17.40;99.90;;;;;;5047082;28;19924;-78
2022/06/25 01:46:05;;;;;;;;;;;17.20;99.90;;;;;;5031047;28;20428;-77
2022/06/25 01:48:31;;;;;;;;;;;17.10;99.90;;;;;;5050667;28;19928;-77
2022/06/25 01:50:57;;;;;;;;;;;16.90;99.90;;;;;;5025864;28;19974;-78
2022/06/25 01:53:22;;;;;;;;;;;16.90;99.90;;;;;;5049324;28;19939;-77
2022/06/25 01:55:48;;;;;;;;;;;16.80;99.90;;;;;;5050005;28;20072;-77
2022/06/25 01:58:14;;;;;;;;;;;16.70;99.90;;;;;;5030703;28;20591;-78
2022/06/25 02:00:39;;;;;;;;;;;16.60;99.90;;;;;;5027386;28;19932;-77
2022/06/25 02:03:05;;;;;;;;;;;16.70;99.90;;;;;;5051757;28;19997;-78
2022/06/25 02:08:16;;;;;;;;;;;16.70;99.90;;;;;;5054672;28;19929;-77
2022/06/25 02:10:42;;;;;;;;;;;16.60;99.90;;;;;;5046373;28;19985;-77
2022/06/25 02:13:08;;;;;;;;;;;16.70;99.90;;;;;;5042652;28;19937;-78
2022/06/25 02:15:34;;;;;;;;;;;16.70;99.90;;;;;;5052142;28;19931;-77
2022/06/25 02:18:00;;;;;;;;;;;16.60;99.90;;;;;;5043976;28;19939;-78
2022/06/25 02:20:26;;;;;;;;;;;16.50;99.90;;;;;;5047423;28;19928;-78
2022/06/25 02:22:52;;;;;;;;;;;16.50;99.90;;;;;;5049561;28;19928;-78
2022/06/25 02:25:18;;;;;;;;;;;16.40;99.90;;;;;;5047006;28;19978;-78
2022/06/25 02:27:43;;;;;;;;;;;16.40;99.90;;;;;;5042561;28;19986;-78
2022/06/25 02:30:09;;;;;;;;;;;16.50;99.90;;;;;;5045316;28;20456;-77
2022/06/25 02:32:35;;;;;;;;;;;16.40;99.90;;;;;;5042919;28;19963;-78
2022/06/25 02:35:01;;;;;;;;;;;16.30;99.90;;;;;;5044758;28;20024;-79
2022/06/25 02:37:26;;;;;;;;;;;16.40;99.90;;;;;;5025277;28;19928;-78
2022/06/25 02:39:52;;;;;;;;;;;16.60;99.90;;;;;;5019164;28;19939;-78
2022/06/25 02:42:18;;;;;;;;;;;16.50;99.90;;;;;;5044791;28;19938;-78
2022/06/25 02:44:43;;;;;;;;;;;16.50;99.90;;;;;;5045605;28;19935;-78
2022/06/25 02:47:09;;;;;;;;;;;16.60;99.90;;;;;;5045132;28;19932;-78
2022/06/25 02:49:35;;;;;;;;;;;16.60;99.90;;;;;;5027808;28;19928;-78
2022/06/25 02:52:01;;;;;;;;;;;16.80;99.90;;;;;;5051013;28;19988;-78
2022/06/25 02:54:26;;;;;;;;;;;16.90;99.90;;;;;;5043297;28;19978;-79
2022/06/25 02:59:40;;;;;;;;;;;16.90;99.90;;;;;;5040596;28;19932;-78
2022/06/25 03:02:06;;;;;;;;;;;16.90;99.90;;;;;;5030438;28;19954;-78
2022/06/25 03:04:32;;;;;;;;;;;16.80;99.90;;;;;;5022295;28;19935;-78
2022/06/25 03:06:57;;;;;;;;;;;16.90;99.90;;;;;;5049452;28;19928;-78
2022/06/25 03:09:23;;;;;;;;;;;16.90;99.90;;;;;;5047989;28;19928;-78
2022/06/25 03:11:49;;;;;;;;;;;16.90;99.90;;;;;;5046411;28;19978;-78
2022/06/25 03:14:15;;;;;;;;;;;16.80;99.90;;;;;;5044069;28;20706;-78
2022/06/25 03:16:41;;;;;;;;;;;16.80;99.90;;;;;;5042997;28;19928;-78
2022/06/25 03:19:07;;;;;;;;;;;16.90;99.90;;;;;;5043894;28;20665;-78
2022/06/25 03:21:33;;;;;;;;;;;16.80;99.90;;;;;;5045247;28;20014;-78
2022/06/25 03:23:59;;;;;;;;;;;16.80;99.90;;;;;;5045795;28;19934;-78
2022/06/25 03:26:24;;;;;;;;;;;16.80;99.90;;;;;;5024886;28;20034;-76
2022/06/25 03:28:50;;;;;;;;;;;16.80;99.90;;;;;;5046582;28;19928;-75
2022/06/25 03:31:16;;;;;;;;;;;16.80;99.90;;;;;;5045699;28;19939;-74
2022/06/25 03:33:41;;;;;;;;;;;16.80;99.90;;;;;;5046641;28;19928;-76
2022/06/25 03:36:07;;;;;;;;;;;16.90;99.90;;;;;;5024310;28;19929;-78
2022/06/25 03:38:33;;;;;;;;;;;16.90;99.90;;;;;;5026780;28;19924;-78
2022/06/25 03:43:43;;;;;;;;;;;16.90;99.90;;;;;;5046958;28;19928;-78
2022/06/25 03:46:09;;;;;;;;;;;16.90;99.90;;;;;;5029538;28;20331;-78
2022/06/25 03:48:34;;;;;;;;;;;16.90;99.90;;;;;;5043831;28;19928;-78
2022/06/25 03:51:00;;;;;;;;;;;16.90;99.90;;;;;;5042121;28;19986;-78
2022/06/25 03:53:26;;;;;;;;;;;16.90;99.90;;;;;;5028765;28;19963;-77
2022/06/25 03:55:52;;;;;;;;;;;17.00;99.90;;;;;;5039047;28;19978;-77
2022/06/25 03:58:17;;;;;;;;;;;17.00;99.90;;;;;;5015480;28;20023;-75
2022/06/25 04:00:43;;;;;;;;;;;17.00;99.90;;;;;;5033792;28;20335;-75
2022/06/25 04:03:09;;;;;;;;;;;17.10;99.90;;;;;;5040141;28;19974;-78
2022/06/25 04:05:35;;;;;;;;;;;17.10;99.90;;;;;;5019962;28;19991;-78
2022/06/25 04:08:00;;;;;;;;;;;17.10;99.90;;;;;;5037481;28;20832;-78
2022/06/25 04:10:26;;;;;;;;;;;17.10;99.90;;;;;;5037054;28;19940;-75
2022/06/25 04:12:52;;;;;;;;;;;17.20;99.90;;;;;;5035087;28;19994;-75
2022/06/25 04:15:18;;;;;;;;;;;17.10;99.90;;;;;;5038925;28;20437;-75
2022/06/25 04:17:43;;;;;;;;;;;17.20;99.90;;;;;;5042018;28;19933;-78
2022/06/25 04:20:10;;;;;;;;;;;17.10;99.90;;;;;;5036857;28;19932;-78
2022/06/25 04:22:37;;;;;;;;;;;17.20;99.90;;;;;;5043943;28;19932;-78
2022/06/25 04:25:03;;;;;;;;;;;17.20;99.90;;;;;;5017798;28;19932;-78
2022/06/25 04:30:13;;;;;;;;;;;17.20;99.90;;;;;;5040190;28;19935;-79
2022/06/25 04:32:39;;;;;;;;;;;17.40;99.90;;;;;;5048346;28;19928;-75
2022/06/25 04:35:05;;;;;;;;;;;17.40;99.90;;;;;;5047984;28;19928;-82
2022/06/25 04:37:30;;;;;;;;;;;17.40;99.90;;;;;;5039629;28;20437;-79
2022/06/25 04:39:56;;;;;;;;;;;17.50;99.90;;;;;;5028344;28;19982;-81
2022/06/25 04:42:22;;;;;;;;;;;17.70;99.90;;;;;;5048175;28;19928;-80
2022/06/25 04:44:47;;;;;;;;;;;18.70;99.90;;;;;;5027605;28;19990;-77
2022/06/25 04:47:13;;;;;;;;;;;20.60;99.90;;;;;;5044981;28;19929;-77
2022/06/25 04:49:38;;;;;;;;;;;22.00;99.90;;;;;;5042621;28;19964;-79
2022/06/25 04:52:04;;;;;;;;;;;22.90;99.90;;;;;;5041792;28;20380;-79
2022/06/25 04:54:30;;;;;;;;;;;23.70;99.90;;;;;;5046311;28;20320;-80
2022/06/25 04:56:56;;;;;;;;;;;24.00;99.90;;;;;;5043243;28;20094;-79
2022/06/25 04:59:21;;;;;;;;;;;24.40;99.90;;;;;;5045358;28;19990;-79
2022/06/25 05:01:47;;;;;;;;;;;25.20;99.90;;;;;;5022661;28;19928;-80
2022/06/25 05:04:13;;;;;;;;;;;25.50;99.90;;;;;;5028685;28;19928;-79
2022/06/25 05:06:39;;;;;;;;;;;25.80;99.90;;;;;;5052123;28;20015;-80
2022/06/25 05:09:04;;;;;;;;;;;26.10;99.90;;;;;;5045881;28;20379;-80
2022/06/25 05:11:30;;;;;;;;;;;26.20;99.90;;;;;;5045077;28;20095;-80
2022/06/25 05:13:56;;;;;;;;;;;26.40;99.90;;;;;;5032459;28;20378;-82
2022/06/25 05:16:21;;;;;;;;;;;26.20;99.90;;;;;;5045284;28;20429;-80
2022/06/25 05:18:48;;;;;;;;;;;26.40;99.90;;;;;;5050146;28;19931;-80
2022/06/25 05:21:13;;;;;;;;;;;26.70;99.90;;;;;;5049229;28;19939;-80
2022/06/25 05:23:39;;;;;;;;;;;27.30;99.90;;;;;;5047759;28;20483;-80
2022/06/25 05:26:05;;;;;;;;;;;26.80;99.90;;;;;;5029048;28;19928;-81
2022/06/25 05:28:31;;;;;;;;;;;27.10;99.90;;;;;;5050023;28;19928;-81
2022/06/25 05:30:56;;;;;;;;;;;27.20;99.90;;;;;;5057092;28;19927;-80
2022/06/25 05:33:22;;;;;;;;;;;27.30;99.90;;;;;;5053379;28;20385;-78
2022/06/25 05:35:48;;;;;;;;;;;27.50;99.90;;;;;;5047488;28;20396;-80
2022/06/25 05:38:14;;;;;;;;;;;27.30;99.90;;;;;;5049324;28;20097;-80
2022/06/25 05:40:40;;;;;;;;;;;27.70;99.90;;;;;;5049519;28;19934;-79
2022/06/25 05:43:06;;;;;;;;;;;27.60;99.90;;;;;;5044255;28;19932;-80
2022/06/25 05:45:31;;;;;;;;;;;27.40;99.90;;;;;;5027780;28;19929;-80
2022/06/25 05:47:57;;;;;;;;;;;27.60;99.90;;;;;;5031359;28;19928;-82
2022/06/25 05:50:23;;;;;;;;;;;25.30;99.90;;;;;;5011806;28;19928;-82
2022/06/25 05:52:49;;;;;;;;;;;24.00;99.90;;;;;;5051317;28;19928;-80
2022/06/25 05:55:14;;;;;;;;;;;23.80;99.90;;;;;;5045986;28;19931;-80
2022/06/25 05:57:40;;;;;;;;;;;23.60;99.90;;;;;;5030231;28;19928;-80
2022/06/25 06:00:08;;;;;;;;;;;23.90;99.90;;;;;;5044444;28;19935;-79
2022/06/25 06:02:33;;;;;;;;;;;24.00;99.90;;;;;;5044228;28;19934;-80
2022/06/25 06:04:59;;;;;;;;;;;24.70;99.90;;;;;;5047484;28;20309;-80
2022/06/25 06:07:25;;;;;;;;;;;24.10;99.90;;;;;;5055350;28;20450;-79
2022/06/25 06:09:51;;;;;;;;;;;23.70;99.90;;;;;;5050880;28;19932;-80
2022/06/25 06:12:16;;;;;;;;;;;23.70;99.90;;;;;;5047283;28;20582;-78
2022/06/25 06:14:42;;;;;;;;;;;23.50;99.90;;;;;;5044667;28;19935;-79
2022/06/25 06:17:09;;;;;;;;;;;24.00;99.90;;;;;;5032013;28;19932;-78
2022/06/25 06:19:35;;;;;;;;;;;24.10;99.90;;;;;;5050048;28;20440;-79
2022/06/25 06:22:00;;;;;;;;;;;23.90;99.90;;;;;;5026597;28;19933;-80
2022/06/25 06:24:26;;;;;;;;;;;23.80;99.90;;;;;;5046647;28;19986;-78
2022/06/25 06:26:52;;;;;;;;;;;23.80;99.90;;;;;;5040166;28;20309;-79
2022/06/25 06:29:17;;;;;;;;;;;24.30;99.90;;;;;;5045323;28;19932;-78
2022/06/25 06:31:43;;;;;;;;;;;24.50;99.90;;;;;;5042056;28;19932;-79
2022/06/25 06:34:09;;;;;;;;;;;24.70;99.90;;;;;;5029711;28;19928;-81
2022/06/25 06:36:35;;;;;;;;;;;24.40;99.90;;;;;;5027595;28;19935;-79
2022/06/25 06:39:01;;;;;;;;;;;24.50;99.90;;;;;;5052170;28;19939;-79
2022/06/25 06:41:26;;;;;;;;;;;24.20;99.90;;;;;;5043939;28;19932;-79
2022/06/25 06:43:52;;;;;;;;;;;24.30;99.90;;;;;;5022891;28;20440;-81
2022/06/25 06:46:19;;;;;;;;;;;24.40;99.90;;;;;;5044495;28;20405;-80
2022/06/25 06:48:44;;;;;;;;;;;24.40;99.90;;;;;;5042516;28;20964;-81
2022/06/25 06:51:10;;;;;;;;;;;24.50;99.90;;;;;;5049441;28;19981;-80
2022/06/25 06:53:36;;;;;;;;;;;24.70;99.90;;;;;;5027691;28;20518;-79
2022/06/25 06:56:02;;;;;;;;;;;24.60;99.90;;;;;;5041103;28;19935;-80
2022/06/25 06:58:29;;;;;;;;;;;24.30;99.90;;;;;;5047459;28;20604;-80
2022/06/25 07:00:55;;;;;;;;;;;24.20;99.90;;;;;;5050466;28;19935;-80
2022/06/25 07:03:21;;;;;;;;;;;24.60;99.90;;;;;;5045667;28;19928;-80
2022/06/25 07:05:46;;;;;;;;;;;24.30;99.90;;;;;;5052720;28;19963;-81
2022/06/25 07:08:12;;;;;;;;;;;24.30;99.90;;;;;;5011381;28;19928;-81
2022/06/25 07:10:38;;;;;;;;;;;24.10;99.90;;;;;;5049677;28;19928;-81
2022/06/25 07:13:04;;;;;;;;;;;24.40;99.90;;;;;;5047495;28;19929;-82
2022/06/25 07:15:30;;;;;;;;;;;24.40;99.90;;;;;;5038301;28;19927;-80
2022/06/25 07:17:55;;;;;;;;;;;24.40;99.90;;;;;;5023051;28;19928;-80
2022/06/25 07:20:22;;;;;;;;;;;24.20;99.90;;;;;;5018983;28;19924;-81
2022/06/25 07:22:48;;;;;;;;;;;24.30;99.90;;;;;;5042930;28;19928;-81
2022/06/25 07:25:14;;;;;;;;;;;24.40;99.90;;;;;;5044010;28;19935;-82
2022/06/25 07:27:39;;;;;;;;;;;24.80;99.90;;;;;;5042848;28;20046;-82
2022/06/25 07:30:05;;;;;;;;;;;24.50;99.90;;;;;;5041233;28;20313;-80
2022/06/25 07:32:31;;;;;;;;;;;24.90;99.90;;;;;;5047619;28;19928;-81
2022/06/25 07:34:57;;;;;;;;;;;24.60;99.90;;;;;;5053870;28;20375;-80
2022/06/25 07:37:22;;;;;;;;;;;24.80;99.90;;;;;;5038403;28;19928;-80
2022/06/25 07:39:48;;;;;;;;;;;24.90;99.90;;;;;;5055334;28;20642;-79
2022/06/25 07:42:14;;;;;;;;;;;25.30;99.90;;;;;;5054193;28;20027;-81
2022/06/25 07:44:39;;;;;;;;;;;24.90;99.90;;;;;;5058359;28;19940;-80
2022/06/25 07:47:06;;;;;;;;;;;25.00;99.90;;;;;;5061008;28;19940;-80
2022/06/25 07:51:56;;;;;;;;;;;24.90;99.90;;;;;;5061594;28;19928;-81
2022/06/25 07:52:17;;;;;;;;;;;25.00;99.90;;;;;;5062261;28;19924;-81
2022/06/25 07:54:43;;;;;;;;;;;24.90;99.90;;;;;;5059349;28;19928;-79
2022/06/25 07:57:08;;;;;;;;;;;25.10;99.90;;;;;;5028260;28;19932;-81
2022/06/25 07:59:34;;;;;;;;;;;25.00;99.90;;;;;;5049516;28;20965;-80
2022/06/25 08:02:00;;;;;;;;;;;24.60;99.90;;;;;;5051319;28;20447;-82
2022/06/25 08:04:26;;;;;;;;;;;25.00;99.90;;;;;;5027596;28;19932;-78
2022/06/25 08:06:54;;;;;;;;;;;25.10;99.90;;;;;;5044592;28;19928;-80
2022/06/25 08:09:20;;;;;;;;;;;25.40;99.90;;;;;;5044062;28;20574;-82
2022/06/25 08:11:45;;;;;;;;;;;25.40;99.90;;;;;;5031694;28;20711;-82
2022/06/25 08:14:11;;;;;;;;;;;25.30;99.90;;;;;;5053757;28;20024;-81
2022/06/25 08:16:38;;;;;;;;;;;25.70;99.90;;;;;;5058598;28;20607;-79
2022/06/25 08:19:04;;;;;;;;;;;25.20;99.90;;;;;;5037305;28;19932;-80
2022/06/25 08:21:30;;;;;;;;;;;25.30;99.90;;;;;;5041680;28;19935;-81
2022/06/25 08:23:55;;;;;;;;;;;25.10;99.90;;;;;;5037709;28;19928;-80
2022/06/25 08:26:21;;;;;;;;;;;25.40;99.90;;;;;;5036839;28;20350;-79
2022/06/25 08:28:47;;;;;;;;;;;25.50;99.90;;;;;;5038461;28;19932;-81
2022/06/25 08:31:12;;;;;;;;;;;25.60;99.90;;;;;;5037919;28;19932;-81
2022/06/25 08:33:38;;;;;;;;;;;25.80;99.90;;;;;;5038636;28;19932;-81
2022/06/25 08:36:04;;;;;;;;;;;25.70;99.90;;;;;;5037881;28;19933;-81
2022/06/25 08:38:30;;;;;;;;;;;25.70;99.90;;;;;;5053118;28;20396;-79
2022/06/25 08:40:57;;;;;;;;;;;25.40;99.90;;;;;;5052677;28;19928;-82
2022/06/25 08:43:24;;;;;;;;;;;25.70;99.90;;;;;;5051313;28;19933;-79
2022/06/25 08:45:49;;;;;;;;;;;25.20;99.90;;;;;;5053151;28;19924;-79
2022/06/25 08:48:22;;;;;;;;;;;24.80;99.90;;;;;;5030354;28;20412;-79
2022/06/25 08:50:49;;;;;;;;;;;24.60;99.90;;;;;;5050441;28;20848;-79
2022/06/25 08:53:14;;;;;;;;;;;24.30;99.90;;;;;;5050381;28;20075;-80
2022/06/25 08:55:41;;;;;;;;;;;24.30;99.90;;;;;;5040305;28;20512;-80
2022/06/25 08:58:07;;;;;;;;;;;24.90;99.90;;;;;;5041468;28;19928;-80
2022/06/25 09:00:35;;;;;;;;;;;25.10;99.90;;;;;;5040657;28;20145;-83
2022/06/25 09:03:01;;;;;;;;;;;25.20;99.90;;;;;;5040862;28;20404;-82
2022/06/25 09:05:34;;;;;;;;;;;25.60;99.90;;;;;;5046875;28;19937;-82
2022/06/25 09:08:01;;;;;;;;;;;25.70;99.90;;;;;;5040353;28;20429;-82
2022/06/25 09:10:27;;;;;;;;;;;26.00;99.90;;;;;;5040420;28;19934;-78
2022/06/25 09:12:54;;;;;;;;;;;26.10;99.90;;;;;;5045062;28;19928;-78
2022/06/25 09:15:30;;;;;;;;;;;26.60;99.90;;;;;;5048700;28;20474;-78
2022/06/25 09:17:55;;;;;;;;;;;27.10;99.90;;;;;;5048964;28;19928;-83
2022/06/25 09:20:22;;;;;;;;;;;27.00;99.90;;;;;;5053369;28;20649;-80
2022/06/25 09:23:02;;;;;;;;;;;26.70;99.90;;;;;;5060194;28;19929;-81
2022/06/25 09:25:30;;;;;;;;;;;27.10;99.90;;;;;;5024906;28;19935;-78
2022/06/25 09:27:57;;;;;;;;;;;27.50;99.90;;;;;;5046544;28;19934;-80
2022/06/25 09:30:24;;;;;;;;;;;27.40;99.90;;;;;;5043666;28;19932;-80
2022/06/25 09:32:53;;;;;;;;;;;27.40;99.90;;;;;;5030441;28;19990;-80
2022/06/25 09:35:32;;;;;;;;;;;27.40;99.90;;;;;;5048573;28;20528;-80
2022/06/25 09:38:01;;;;;;;;;;;27.00;99.90;;;;;;5028647;28;20824;-80
2022/06/25 09:40:27;;;;;;;;;;;27.30;99.90;;;;;;5018681;28;20208;-79
2022/06/25 09:42:53;;;;;;;;;;;26.90;99.90;;;;;;5027847;28;20829;-80
2022/06/25 09:45:19;;;;;;;;;;;27.20;99.90;;;;;;5040691;28;20946;-81
2022/06/25 09:47:44;;;;;;;;;;;27.30;99.90;;;;;;4996379;28;20360;-81
2022/06/25 09:50:14;;;;;;;;;;;27.60;99.90;;;;;;5053495;28;20389;-80
2022/06/25 09:52:50;;;;;;;;;;;27.20;99.90;;;;;;5050052;28;19932;-81
2022/06/25 09:55:15;;;;;;;;;;;27.10;99.90;;;;;;5050854;28;20492;-79
2022/06/25 09:57:42;;;;;;;;;;;27.30;99.90;;;;;;5046261;28;19977;-80
2022/06/25 10:00:10;;;;;;;;;;;26.50;99.90;;;;;;5046166;28;19939;-78
2022/06/25 10:02:36;;;;;;;;;;;26.30;99.90;;;;;;5046685;28;19928;-81
2022/06/25 10:05:03;;;;;;;;;;;26.70;99.90;;;;;;5033633;28;19928;-86
2022/06/25 10:10:19;;;;;;;;;;;26.90;99.90;;;;;;5039005;28;19939;-83
2022/06/25 10:12:46;;;;;;;;;;;26.80;99.90;;;;;;5055286;28;20037;-79
2022/06/25 10:15:14;;;;;;;;;;;26.90;99.90;;;;;;5060140;28;20011;-81
2022/06/25 10:17:40;;;;;;;;;;;26.80;99.90;;;;;;5035906;28;19985;-83
2022/06/25 10:20:06;;;;;;;;;;;27.30;99.90;;;;;;5056199;28;19928;-81
2022/06/25 10:22:32;;;;;;;;;;;27.40;99.90;;;;;;5036766;28;19928;-81
2022/06/25 10:25:00;;;;;;;;;;;27.60;99.90;;;;;;5051403;28;19928;-82
2022/06/25 10:27:26;;;;;;;;;;;27.10;99.90;;;;;;5058092;28;20509;-81
2022/06/25 10:29:54;;;;;;;;;;;26.80;99.90;;;;;;5058182;28;19928;-80
2022/06/25 10:32:20;;;;;;;;;;;27.20;99.90;;;;;;5053969;28;20371;-81
2022/06/25 10:34:52;;;;;;;;;;;27.90;99.90;;;;;;5054597;28;19928;-79
2022/06/25 10:37:19;;;;;;;;;;;27.50;99.90;;;;;;5055894;28;19981;-81
2022/06/25 10:39:48;;;;;;;;;;;28.00;99.90;;;;;;5057726;28;20444;-85
2022/06/25 10:45:04;;;;;;;;;;;28.10;99.90;;;;;;5059949;28;19955;-80
2022/06/25 10:47:37;;;;;;;;;;;28.40;99.90;;;;;;5060986;28;19928;-83
2022/06/25 10:50:21;;;;;;;;;;;28.70;99.90;;;;;;5063457;28;20393;-82
2022/06/25 10:53:05;;;;;;;;;;;28.90;99.90;;;;;;5057472;28;20821;-83
2022/06/25 10:55:40;;;;;;;;;;;29.20;99.90;;;;;;5063400;28;20038;-81
2022/06/25 10:58:16;;;;;;;;;;;28.40;99.90;;;;;;5041664;28;19927;-81
2022/06/25 11:00:46;;;;;;;;;;;28.60;99.90;;;;;;5057632;28;19928;-82
2022/06/25 11:03:12;;;;;;;;;;;28.60;99.90;;;;;;5062289;28;20646;-82
2022/06/25 11:05:41;;;;;;;;;;;28.50;99.90;;;;;;5063915;28;19932;-83
2022/06/25 11:08:07;;;;;;;;;;;28.80;99.90;;;;;;5054361;28;19936;-80
2022/06/25 11:10:34;;;;;;;;;;;28.70;99.90;;;;;;5053698;28;20928;-83
2022/06/25 11:12:59;;;;;;;;;;;28.70;99.90;;;;;;5053682;28;19932;-81
2022/06/25 11:15:25;;;;;;;;;;;28.90;99.90;;;;;;5054719;28;19928;-84
2022/06/25 11:17:51;;;;;;;;;;;28.70;99.90;;;;;;5018531;28;20019;-83
2022/06/25 11:20:17;;;;;;;;;;;28.60;99.90;;;;;;5059732;28;20834;-81
2022/06/25 11:22:46;;;;;;;;;;;28.80;99.90;;;;;;5061857;28;19936;-80
2022/06/25 11:30:40;;;;;;;;;;;28.50;99.90;;;;;;5049029;28;19932;-82
2022/06/25 11:33:09;;;;;;;;;;;28.40;99.90;;;;;;5035285;28;19988;-82
2022/06/25 11:35:39;;;;;;;;;;;28.40;99.90;;;;;;5054468;28;19928;-81
2022/06/25 11:38:12;;;;;;;;;;;27.90;99.90;;;;;;5039169;28;19928;-79
2022/06/25 11:40:38;;;;;;;;;;;28.40;99.90;;;;;;5024064;28;19978;-82
2022/06/25 11:43:07;;;;;;;;;;;28.50;99.90;;;;;;5026006;28;19933;-83
2022/06/25 11:45:45;;;;;;;;;;;28.00;99.90;;;;;;5053942;28;19931;-81
2022/06/25 11:48:11;;;;;;;;;;;27.40;99.90;;;;;;5053230;28;20392;-81
2022/06/25 11:50:37;;;;;;;;;;;27.40;99.90;;;;;;5032158;28;19927;-80
2022/06/25 11:53:04;;;;;;;;;;;27.20;99.90;;;;;;5051878;28;20377;-81
2022/06/25 11:55:29;;;;;;;;;;;27.60;99.90;;;;;;5053555;28;19936;-82
2022/06/25 11:57:59;;;;;;;;;;;28.10;99.90;;;;;;5030775;28;19927;-84
2022/06/25 12:00:24;;;;;;;;;;;28.00;99.90;;;;;;5050974;28;19929;-82
2022/06/25 12:03:00;;;;;;;;;;;28.40;99.90;;;;;;5043201;28;19983;-81
2022/06/25 12:05:26;;;;;;;;;;;28.50;99.90;;;;;;5050368;28;19928;-83
2022/06/25 12:07:55;;;;;;;;;;;27.90;99.90;;;;;;5049287;28;19971;-82
2022/06/25 12:10:21;;;;;;;;;;;28.20;99.90;;;;;;5032696;28;19932;-84
2022/06/25 12:12:48;;;;;;;;;;;28.00;99.90;;;;;;5047024;28;22291;-80
2022/06/25 12:15:15;;;;;;;;;;;27.50;99.90;;;;;;5028492;28;19928;-80
2022/06/25 12:17:40;;;;;;;;;;;28.00;99.90;;;;;;5050024;28;19929;-82
2022/06/25 12:20:07;;;;;;;;;;;28.40;99.90;;;;;;5055823;28;19935;-81
2022/06/25 12:22:35;;;;;;;;;;;27.80;99.90;;;;;;5049089;28;20630;-83
2022/06/25 12:25:01;;;;;;;;;;;27.70;99.90;;;;;;5043873;28;20425;-82
2022/06/25 12:27:27;;;;;;;;;;;27.60;99.90;;;;;;5045799;28;19928;-85
2022/06/25 12:29:55;;;;;;;;;;;28.50;99.90;;;;;;5049895;28;20388;-82
2022/06/25 12:32:37;;;;;;;;;;;28.70;99.90;;;;;;5053725;28;19978;-81
2022/06/25 12:35:03;;;;;;;;;;;28.30;99.90;;;;;;5031551;28;20662;-80
2022/06/25 12:37:30;;;;;;;;;;;28.50;99.90;;;;;;5029814;28;19932;-82
2022/06/25 12:39:57;;;;;;;;;;;27.80;99.90;;;;;;5052992;28;19929;-83
2022/06/25 12:42:25;;;;;;;;;;;28.70;99.90;;;;;;5046573;28;19929;-83
2022/06/25 12:44:52;;;;;;;;;;;29.10;99.90;;;;;;5043258;28;19939;-82
2022/06/25 12:47:18;;;;;;;;;;;29.00;99.90;;;;;;5047609;28;19928;-79
2022/06/25 12:49:52;;;;;;;;;;;28.20;99.90;;;;;;5046711;28;19924;-81
2022/06/25 12:52:26;;;;;;;;;;;28.50;99.90;;;;;;5026867;28;19936;-81
2022/06/25 12:54:56;;;;;;;;;;;29.00;99.90;;;;;;5026856;28;19940;-80
2022/06/25 12:57:26;;;;;;;;;;;28.70;99.90;;;;;;5044685;28;19933;-81
2022/06/25 12:59:52;;;;;;;;;;;28.00;99.90;;;;;;5046464;28;19929;-80
2022/06/25 13:02:19;;;;;;;;;;;27.60;99.90;;;;;;5050368;28;19952;-84
2022/06/25 13:04:45;;;;;;;;;;;27.20;99.90;;;;;;5030549;28;19951;-82
2022/06/25 13:07:13;;;;;;;;;;;27.00;99.90;;;;;;5056453;28;20389;-83
2022/06/25 13:09:40;;;;;;;;;;;26.80;99.90;;;;;;5049279;28;19939;-84
2022/06/25 13:12:06;;;;;;;;;;;26.80;99.90;;;;;;5054104;28;19928;-80
2022/06/25 13:14:31;;;;;;;;;;;26.80;99.90;;;;;;5053410;28;20281;-82
2022/06/25 13:16:58;;;;;;;;;;;26.90;99.90;;;;;;5052268;28;19932;-82
2022/06/25 13:19:24;;;;;;;;;;;27.70;99.90;;;;;;5059706;28;20032;-82
2022/06/25 13:21:50;;;;;;;;;;;28.00;99.90;;;;;;5060451;28;19951;-81
2022/06/25 13:24:15;;;;;;;;;;;28.40;99.90;;;;;;5054768;28;20377;-82
2022/06/25 13:26:42;;;;;;;;;;;28.00;99.90;;;;;;5037243;28;19928;-82
2022/06/25 13:29:08;;;;;;;;;;;27.30;99.90;;;;;;5060090;28;19936;-82
2022/06/25 13:31:34;;;;;;;;;;;26.60;99.90;;;;;;5066745;28;20433;-83
2022/06/25 13:34:00;;;;;;;;;;;26.10;99.90;;;;;;5057810;28;20018;-82
2022/06/25 13:36:25;;;;;;;;;;;25.90;99.90;;;;;;5060257;28;19982;-82
2022/06/25 13:38:53;;;;;;;;;;;25.80;99.90;;;;;;5036804;28;19955;-81
2022/06/25 13:41:19;;;;;;;;;;;25.70;99.90;;;;;;5057561;28;19936;-81
2022/06/25 13:43:45;;;;;;;;;;;25.50;99.90;;;;;;5036339;28;20261;-81
2022/06/25 13:46:11;;;;;;;;;;;25.40;99.90;;;;;;5056655;28;20568;-80
2022/06/25 13:48:37;;;;;;;;;;;25.20;99.90;;;;;;5063403;28;19936;-82
2022/06/25 13:51:02;;;;;;;;;;;25.10;99.90;;;;;;5056827;28;19971;-82
2022/06/25 13:53:30;;;;;;;;;;;25.20;99.90;;;;;;5057513;28;20393;-84
2022/06/25 13:55:56;;;;;;;;;;;25.40;99.90;;;;;;5058981;28;19928;-84
2022/06/25 13:58:22;;;;;;;;;;;25.20;99.90;;;;;;5011607;28;19928;-81
2022/06/25 14:00:48;;;;;;;;;;;25.40;99.90;;;;;;5050644;28;19928;-81
2022/06/25 14:03:13;;;;;;;;;;;25.60;99.90;;;;;;5037854;28;20036;-82
2022/06/25 14:05:39;;;;;;;;;;;25.80;99.90;;;;;;5058784;28;19935;-82
2022/06/25 14:08:05;;;;;;;;;;;26.50;99.90;;;;;;5051750;28;19928;-82
2022/06/25 14:10:31;;;;;;;;;;;27.20;99.90;;;;;;5037278;28;19982;-82
2022/06/25 14:12:57;;;;;;;;;;;27.30;99.90;;;;;;5033929;28;20232;-82
2022/06/25 14:15:23;;;;;;;;;;;27.20;99.90;;;;;;5051113;28;19928;-82
2022/06/25 14:17:49;;;;;;;;;;;27.10;99.90;;;;;;5053941;28;20163;-81
2022/06/25 14:20:15;;;;;;;;;;;27.80;99.90;;;;;;5054783;28;20787;-82
2022/06/25 14:22:41;;;;;;;;;;;28.40;99.90;;;;;;5054728;28;19939;-83
2022/06/25 14:25:22;;;;;;;;;;;28.10;99.90;;;;;;5035867;28;20444;-82
2022/06/25 14:27:49;;;;;;;;;;;28.50;99.90;;;;;;5049698;28;20381;-82
2022/06/25 14:30:14;;;;;;;;;;;28.70;99.90;;;;;;5055680;28;19975;-81
2022/06/25 14:32:40;;;;;;;;;;;28.80;99.90;;;;;;5040785;28;20011;-82
2022/06/25 14:35:06;;;;;;;;;;;28.90;99.90;;;;;;5057936;28;19932;-80